Terminal Aerodrome Forecast
Issued by NWS Atlanta, GA

Home | Current Version | Previous Version | Text Only | Print | Product List | Glossary On
Versions: 1 2 3 4 5 6 7 8 9 10 11 12 13 14 15 16 17 18 19 20 21
000
FTUS42 KFFC 312339
TAFMCN
TAF
KMCN 312339Z 0100/0124 00000KT P6SM SCT060
     FM011500 06003KT P6SM SCT040 SCT250
     FM011900 11006KT P6SM BKN050=

USA.gov is the U.S. government's official web portal to all federal, state and local government web resources and services.